sensor_id;sensor_type;location;lat;lon;timestamp;P1;durP1;ratioP1;P2;durP2;ratioP2
43803;SDS011;29430;52.924;-2.388;2023-12-20T00:00:18;11.98;;;0.90;;
43803;SDS011;29430;52.924;-2.388;2023-12-20T00:05:16;3.40;;;0.30;;
43803;SDS011;29430;52.924;-2.388;2023-12-20T00:10:08;5.30;;;0.50;;
43803;SDS011;29430;52.924;-2.388;2023-12-20T00:15:00;5.60;;;0.40;;
43803;SDS011;29430;52.924;-2.388;2023-12-20T00:19:51;7.65;;;0.40;;
43803;SDS011;29430;52.924;-2.388;2023-12-20T00:24:43;7.93;;;0.60;;
43803;SDS011;29430;52.924;-2.388;2023-12-20T00:29:35;10.55;;;0.55;;
43803;SDS011;29430;52.924;-2.388;2023-12-20T00:34:27;5.80;;;0.47;;
43803;SDS011;29430;52.924;-2.388;2023-12-20T00:39:18;9.15;;;0.50;;
43803;SDS011;29430;52.924;-2.388;2023-12-20T00:44:10;8.85;;;0.40;;
43803;SDS011;29430;52.924;-2.388;2023-12-20T00:49:02;6.57;;;0.28;;
43803;SDS011;29430;52.924;-2.388;2023-12-20T00:53:54;5.00;;;0.70;;
43803;SDS011;29430;52.924;-2.388;2023-12-20T00:58:46;5.80;;;0.63;;
43803;SDS011;29430;52.924;-2.388;2023-12-20T01:03:38;6.80;;;0.40;;
43803;SDS011;29430;52.924;-2.388;2023-12-20T01:08:30;3.17;;;0.30;;
43803;SDS011;29430;52.924;-2.388;2023-12-20T01:13:22;4.40;;;0.30;;
43803;SDS011;29430;52.924;-2.388;2023-12-20T01:18:14;6.68;;;0.82;;
43803;SDS011;29430;52.924;-2.388;2023-12-20T01:23:06;6.40;;;0.80;;
43803;SDS011;29430;52.924;-2.388;2023-12-20T01:27:57;5.18;;;0.30;;
43803;SDS011;29430;52.924;-2.388;2023-12-20T01:32:49;13.60;;;0.50;;
43803;SDS011;29430;52.924;-2.388;2023-12-20T01:37:41;6.13;;;0.40;;
43803;SDS011;29430;52.924;-2.388;2023-12-20T01:42:33;7.78;;;0.57;;
43803;SDS011;29430;52.924;-2.388;2023-12-20T01:47:25;8.32;;;0.40;;
43803;SDS011;29430;52.924;-2.388;2023-12-20T01:52:19;5.13;;;0.32;;
43803;SDS011;29430;52.924;-2.388;2023-12-20T01:57:12;6.85;;;0.30;;
43803;SDS011;29430;52.924;-2.388;2023-12-20T02:02:03;4.18;;;0.50;;
43803;SDS011;29430;52.924;-2.388;2023-12-20T02:06:55;5.35;;;0.22;;
43803;SDS011;29430;52.924;-2.388;2023-12-20T02:11:49;10.23;;;0.40;;
43803;SDS011;29430;52.924;-2.388;2023-12-20T02:16:40;3.95;;;0.30;;
43803;SDS011;29430;52.924;-2.388;2023-12-20T02:21:32;8.43;;;0.30;;
43803;SDS011;29430;52.924;-2.388;2023-12-20T02:26:27;9.48;;;0.57;;
43803;SDS011;29430;52.924;-2.388;2023-12-20T02:31:23;6.68;;;0.50;;
43803;SDS011;29430;52.924;-2.388;2023-12-20T02:36:15;5.35;;;0.38;;
43803;SDS011;29430;52.924;-2.388;2023-12-20T02:41:06;3.65;;;0.35;;
43803;SDS011;29430;52.924;-2.388;2023-12-20T02:45:58;6.30;;;0.60;;
43803;SDS011;29430;52.924;-2.388;2023-12-20T02:50:50;4.88;;;0.50;;
43803;SDS011;29430;52.924;-2.388;2023-12-20T02:55:42;6.10;;;0.32;;
43803;SDS011;29430;52.924;-2.388;2023-12-20T03:00:34;7.28;;;0.40;;
43803;SDS011;29430;52.924;-2.388;2023-12-20T03:05:25;8.88;;;0.60;;
43803;SDS011;29430;52.924;-2.388;2023-12-20T03:10:18;6.38;;;0.70;;
43803;SDS011;29430;52.924;-2.388;2023-12-20T03:15:17;5.50;;;0.82;;
43803;SDS011;29430;52.924;-2.388;2023-12-20T03:20:09;6.65;;;0.50;;
43803;SDS011;29430;52.924;-2.388;2023-12-20T03:25:00;3.38;;;0.88;;
43803;SDS011;29430;52.924;-2.388;2023-12-20T03:29:52;7.10;;;0.40;;
43803;SDS011;29430;52.924;-2.388;2023-12-20T03:34:44;3.67;;;0.30;;
43803;SDS011;29430;52.924;-2.388;2023-12-20T03:39:36;6.15;;;0.30;;
43803;SDS011;29430;52.924;-2.388;2023-12-20T03:44:28;8.15;;;0.40;;
43803;SDS011;29430;52.924;-2.388;2023-12-20T03:49:20;4.25;;;0.38;;
43803;SDS011;29430;52.924;-2.388;2023-12-20T03:54:11;7.15;;;0.60;;
43803;SDS011;29430;52.924;-2.388;2023-12-20T03:59:03;5.35;;;0.40;;
43803;SDS011;29430;52.924;-2.388;2023-12-20T04:03:55;6.43;;;0.20;;
43803;SDS011;29430;52.924;-2.388;2023-12-20T04:08:46;9.93;;;0.50;;
43803;SDS011;29430;52.924;-2.388;2023-12-20T04:13:38;4.80;;;0.30;;
43803;SDS011;29430;52.924;-2.388;2023-12-20T04:18:30;4.88;;;0.47;;
43803;SDS011;29430;52.924;-2.388;2023-12-20T04:23:23;7.35;;;0.40;;
43803;SDS011;29430;52.924;-2.388;2023-12-20T04:28:15;7.38;;;0.30;;
43803;SDS011;29430;52.924;-2.388;2023-12-20T04:33:06;5.68;;;0.40;;
43803;SDS011;29430;52.924;-2.388;2023-12-20T04:37:58;4.07;;;0.40;;
43803;SDS011;29430;52.924;-2.388;2023-12-20T04:42:50;8.75;;;0.85;;
43803;SDS011;29430;52.924;-2.388;2023-12-20T04:47:42;4.63;;;0.40;;
43803;SDS011;29430;52.924;-2.388;2023-12-20T04:52:34;6.00;;;0.45;;
43803;SDS011;29430;52.924;-2.388;2023-12-20T04:57:26;6.80;;;0.75;;
43803;SDS011;29430;52.924;-2.388;2023-12-20T05:02:17;4.95;;;0.38;;
43803;SDS011;29430;52.924;-2.388;2023-12-20T05:07:09;3.50;;;0.40;;
43803;SDS011;29430;52.924;-2.388;2023-12-20T05:12:01;5.82;;;0.40;;
43803;SDS011;29430;52.924;-2.388;2023-12-20T05:16:53;4.05;;;0.20;;
43803;SDS011;29430;52.924;-2.388;2023-12-20T05:21:44;3.10;;;0.50;;
43803;SDS011;29430;52.924;-2.388;2023-12-20T05:26:36;6.88;;;1.05;;
43803;SDS011;29430;52.924;-2.388;2023-12-20T05:31:28;8.80;;;0.30;;
43803;SDS011;29430;52.924;-2.388;2023-12-20T05:36:20;6.70;;;0.30;;
43803;SDS011;29430;52.924;-2.388;2023-12-20T05:41:11;2.45;;;0.20;;
43803;SDS011;29430;52.924;-2.388;2023-12-20T05:46:03;3.00;;;0.20;;
43803;SDS011;29430;52.924;-2.388;2023-12-20T05:50:55;3.33;;;0.30;;
43803;SDS011;29430;52.924;-2.388;2023-12-20T05:55:47;3.38;;;0.22;;
43803;SDS011;29430;52.924;-2.388;2023-12-20T06:00:38;3.95;;;0.17;;
43803;SDS011;29430;52.924;-2.388;2023-12-20T06:05:30;2.88;;;0.32;;
43803;SDS011;29430;52.924;-2.388;2023-12-20T06:10:22;4.25;;;0.25;;
43803;SDS011;29430;52.924;-2.388;2023-12-20T06:15:14;2.78;;;0.20;;
43803;SDS011;29430;52.924;-2.388;2023-12-20T06:20:07;3.45;;;0.20;;
43803;SDS011;29430;52.924;-2.388;2023-12-20T06:24:59;4.78;;;0.30;;
43803;SDS011;29430;52.924;-2.388;2023-12-20T06:29:51;3.67;;;0.30;;
43803;SDS011;29430;52.924;-2.388;2023-12-20T06:34:43;1.80;;;0.10;;
43803;SDS011;29430;52.924;-2.388;2023-12-20T06:39:34;3.90;;;0.20;;
43803;SDS011;29430;52.924;-2.388;2023-12-20T06:44:26;7.70;;;0.57;;
43803;SDS011;29430;52.924;-2.388;2023-12-20T06:49:18;6.55;;;0.30;;
43803;SDS011;29430;52.924;-2.388;2023-12-20T06:54:10;1.17;;;0.10;;
43803;SDS011;29430;52.924;-2.388;2023-12-20T06:59:02;4.22;;;0.30;;
43803;SDS011;29430;52.924;-2.388;2023-12-20T07:03:53;3.65;;;0.10;;
43803;SDS011;29430;52.924;-2.388;2023-12-20T07:08:45;1.80;;;0.20;;
43803;SDS011;29430;52.924;-2.388;2023-12-20T07:13:36;3.90;;;0.20;;
43803;SDS011;29430;52.924;-2.388;2023-12-20T07:18:28;5.07;;;0.30;;
43803;SDS011;29430;52.924;-2.388;2023-12-20T07:23:20;3.08;;;0.30;;
43803;SDS011;29430;52.924;-2.388;2023-12-20T07:28:12;4.28;;;0.77;;
43803;SDS011;29430;52.924;-2.388;2023-12-20T07:33:04;4.55;;;0.28;;
43803;SDS011;29430;52.924;-2.388;2023-12-20T07:37:56;1.88;;;0.17;;
43803;SDS011;29430;52.924;-2.388;2023-12-20T07:42:48;4.82;;;0.10;;
43803;SDS011;29430;52.924;-2.388;2023-12-20T07:47:40;2.03;;;0.20;;
43803;SDS011;29430;52.924;-2.388;2023-12-20T07:52:32;2.08;;;0.20;;
43803;SDS011;29430;52.924;-2.388;2023-12-20T07:57:24;4.40;;;0.30;;
43803;SDS011;29430;52.924;-2.388;2023-12-20T08:02:15;5.38;;;0.20;;
43803;SDS011;29430;52.924;-2.388;2023-12-20T08:07:07;5.35;;;0.20;;
43803;SDS011;29430;52.924;-2.388;2023-12-20T08:11:59;6.35;;;0.40;;
43803;SDS011;29430;52.924;-2.388;2023-12-20T08:16:51;6.40;;;0.20;;
43803;SDS011;29430;52.924;-2.388;2023-12-20T08:21:42;5.80;;;0.38;;
43803;SDS011;29430;52.924;-2.388;2023-12-20T08:26:34;5.32;;;0.20;;
43803;SDS011;29430;52.924;-2.388;2023-12-20T08:31:26;3.90;;;0.25;;
43803;SDS011;29430;52.924;-2.388;2023-12-20T08:36:18;4.07;;;0.17;;
43803;SDS011;29430;52.924;-2.388;2023-12-20T08:41:12;4.22;;;0.30;;
43803;SDS011;29430;52.924;-2.388;2023-12-20T08:46:04;5.13;;;0.20;;
43803;SDS011;29430;52.924;-2.388;2023-12-20T08:50:56;2.83;;;0.20;;
43803;SDS011;29430;52.924;-2.388;2023-12-20T08:55:47;7.18;;;0.45;;
43803;SDS011;29430;52.924;-2.388;2023-12-20T09:00:39;1.63;;;0.10;;
43803;SDS011;29430;52.924;-2.388;2023-12-20T09:05:31;6.38;;;0.20;;
43803;SDS011;29430;52.924;-2.388;2023-12-20T09:10:23;3.03;;;0.20;;
43803;SDS011;29430;52.924;-2.388;2023-12-20T09:15:15;3.42;;;0.15;;
43803;SDS011;29430;52.924;-2.388;2023-12-20T09:20:06;6.25;;;0.30;;
43803;SDS011;29430;52.924;-2.388;2023-12-20T09:24:59;1.48;;;0.20;;
43803;SDS011;29430;52.924;-2.388;2023-12-20T09:29:53;2.97;;;0.20;;
43803;SDS011;29430;52.924;-2.388;2023-12-20T09:34:45;2.10;;;0.20;;
43803;SDS011;29430;52.924;-2.388;2023-12-20T09:39:38;1.42;;;0.10;;
43803;SDS011;29430;52.924;-2.388;2023-12-20T09:44:31;3.88;;;0.60;;
43803;SDS011;29430;52.924;-2.388;2023-12-20T09:49:27;6.88;;;0.25;;
43803;SDS011;29430;52.924;-2.388;2023-12-20T09:54:20;2.35;;;0.20;;
43803;SDS011;29430;52.924;-2.388;2023-12-20T09:59:13;1.40;;;0.10;;
43803;SDS011;29430;52.924;-2.388;2023-12-20T10:04:06;2.15;;;0.20;;
43803;SDS011;29430;52.924;-2.388;2023-12-20T10:09:03;1.75;;;0.10;;
43803;SDS011;29430;52.924;-2.388;2023-12-20T10:13:59;0.93;;;0.10;;
43803;SDS011;29430;52.924;-2.388;2023-12-20T10:18:55;3.55;;;0.10;;
43803;SDS011;29430;52.924;-2.388;2023-12-20T10:23:51;3.70;;;0.00;;
43803;SDS011;29430;52.924;-2.388;2023-12-20T10:28:43;1.83;;;0.10;;
43803;SDS011;29430;52.924;-2.388;2023-12-20T10:33:34;1.92;;;0.10;;
43803;SDS011;29430;52.924;-2.388;2023-12-20T10:38:26;1.77;;;0.10;;
43803;SDS011;29430;52.924;-2.388;2023-12-20T10:43:20;0.75;;;0.10;;
43803;SDS011;29430;52.924;-2.388;2023-12-20T10:48:13;1.30;;;0.00;;
43803;SDS011;29430;52.924;-2.388;2023-12-20T10:53:07;0.55;;;0.10;;
43803;SDS011;29430;52.924;-2.388;2023-12-20T10:58:08;2.92;;;0.00;;
43803;SDS011;29430;52.924;-2.388;2023-12-20T11:03:00;1.75;;;0.10;;
43803;SDS011;29430;52.924;-2.388;2023-12-20T11:13:20;1.52;;;0.10;;
43803;SDS011;29430;52.924;-2.388;2023-12-20T11:18:14;1.02;;;0.10;;
43803;SDS011;29430;52.924;-2.388;2023-12-20T11:23:07;2.05;;;0.22;;
43803;SDS011;29430;52.924;-2.388;2023-12-20T11:28:06;3.75;;;0.20;;
43803;SDS011;29430;52.924;-2.388;2023-12-20T11:33:00;1.45;;;0.10;;
43803;SDS011;29430;52.924;-2.388;2023-12-20T11:37:52;1.80;;;0.10;;
43803;SDS011;29430;52.924;-2.388;2023-12-20T11:42:44;3.78;;;0.20;;
43803;SDS011;29430;52.924;-2.388;2023-12-20T11:47:39;3.33;;;0.17;;
43803;SDS011;29430;52.924;-2.388;2023-12-20T11:52:32;2.55;;;0.73;;
43803;SDS011;29430;52.924;-2.388;2023-12-20T11:57:23;1.75;;;0.30;;
43803;SDS011;29430;52.924;-2.388;2023-12-20T12:02:17;1.95;;;0.20;;
43803;SDS011;29430;52.924;-2.388;2023-12-20T12:07:10;1.75;;;0.10;;
43803;SDS011;29430;52.924;-2.388;2023-12-20T12:12:02;0.85;;;0.00;;
43803;SDS011;29430;52.924;-2.388;2023-12-20T12:16:54;1.63;;;0.20;;
43803;SDS011;29430;52.924;-2.388;2023-12-20T12:21:46;0.77;;;0.10;;
43803;SDS011;29430;52.924;-2.388;2023-12-20T12:26:38;1.90;;;0.10;;
43803;SDS011;29430;52.924;-2.388;2023-12-20T12:31:30;2.05;;;0.08;;
43803;SDS011;29430;52.924;-2.388;2023-12-20T12:36:22;1.50;;;0.10;;
43803;SDS011;29430;52.924;-2.388;2023-12-20T12:41:14;0.70;;;0.00;;
43803;SDS011;29430;52.924;-2.388;2023-12-20T12:46:06;0.88;;;0.00;;
43803;SDS011;29430;52.924;-2.388;2023-12-20T12:50:58;0.43;;;0.00;;
43803;SDS011;29430;52.924;-2.388;2023-12-20T12:55:50;1.85;;;0.10;;
43803;SDS011;29430;52.924;-2.388;2023-12-20T13:00:42;2.63;;;0.20;;
43803;SDS011;29430;52.924;-2.388;2023-12-20T13:05:34;1.45;;;0.20;;
43803;SDS011;29430;52.924;-2.388;2023-12-20T13:10:31;1.65;;;0.20;;
43803;SDS011;29430;52.924;-2.388;2023-12-20T13:15:23;2.38;;;0.10;;
43803;SDS011;29430;52.924;-2.388;2023-12-20T13:20:15;0.45;;;0.08;;
43803;SDS011;29430;52.924;-2.388;2023-12-20T13:25:07;0.70;;;0.05;;
43803;SDS011;29430;52.924;-2.388;2023-12-20T13:29:59;2.28;;;0.10;;
43803;SDS011;29430;52.924;-2.388;2023-12-20T13:34:51;1.95;;;0.10;;
43803;SDS011;29430;52.924;-2.388;2023-12-20T13:39:42;1.55;;;0.10;;
43803;SDS011;29430;52.924;-2.388;2023-12-20T13:44:34;2.15;;;0.10;;
43803;SDS011;29430;52.924;-2.388;2023-12-20T13:49:26;1.98;;;0.30;;
43803;SDS011;29430;52.924;-2.388;2023-12-20T13:54:19;2.38;;;0.10;;
43803;SDS011;29430;52.924;-2.388;2023-12-20T13:59:13;1.73;;;0.10;;
43803;SDS011;29430;52.924;-2.388;2023-12-20T14:04:06;1.45;;;0.03;;
43803;SDS011;29430;52.924;-2.388;2023-12-20T14:08:58;1.70;;;0.10;;
43803;SDS011;29430;52.924;-2.388;2023-12-20T14:13:53;0.90;;;0.05;;
43803;SDS011;29430;52.924;-2.388;2023-12-20T14:18:49;1.42;;;0.13;;
43803;SDS011;29430;52.924;-2.388;2023-12-20T14:23:43;0.70;;;0.03;;
43803;SDS011;29430;52.924;-2.388;2023-12-20T14:28:37;0.60;;;0.10;;
43803;SDS011;29430;52.924;-2.388;2023-12-20T14:33:29;1.55;;;0.00;;
43803;SDS011;29430;52.924;-2.388;2023-12-20T14:38:21;0.52;;;0.00;;
43803;SDS011;29430;52.924;-2.388;2023-12-20T14:43:12;0.17;;;0.00;;
43803;SDS011;29430;52.924;-2.388;2023-12-20T14:48:04;0.52;;;0.00;;
43803;SDS011;29430;52.924;-2.388;2023-12-20T14:52:56;2.05;;;0.13;;
43803;SDS011;29430;52.924;-2.388;2023-12-20T14:57:48;0.85;;;0.10;;
43803;SDS011;29430;52.924;-2.388;2023-12-20T15:02:41;1.05;;;0.20;;
43803;SDS011;29430;52.924;-2.388;2023-12-20T15:07:32;0.80;;;0.20;;
43803;SDS011;29430;52.924;-2.388;2023-12-20T15:12:24;1.25;;;0.17;;
43803;SDS011;29430;52.924;-2.388;2023-12-20T15:17:16;1.95;;;0.10;;
43803;SDS011;29430;52.924;-2.388;2023-12-20T15:22:08;0.85;;;0.00;;
43803;SDS011;29430;52.924;-2.388;2023-12-20T15:26:59;1.58;;;0.10;;
43803;SDS011;29430;52.924;-2.388;2023-12-20T15:31:51;2.30;;;0.20;;
43803;SDS011;29430;52.924;-2.388;2023-12-20T15:36:43;0.70;;;0.10;;
43803;SDS011;29430;52.924;-2.388;2023-12-20T15:41:35;0.75;;;0.10;;
43803;SDS011;29430;52.924;-2.388;2023-12-20T15:46:27;0.63;;;0.00;;
43803;SDS011;29430;52.924;-2.388;2023-12-20T15:51:20;1.63;;;0.10;;
43803;SDS011;29430;52.924;-2.388;2023-12-20T15:56:13;1.00;;;0.00;;
43803;SDS011;29430;52.924;-2.388;2023-12-20T16:01:05;1.35;;;0.10;;
43803;SDS011;29430;52.924;-2.388;2023-12-20T16:05:56;2.20;;;0.20;;
43803;SDS011;29430;52.924;-2.388;2023-12-20T16:10:58;2.22;;;0.20;;
43803;SDS011;29430;52.924;-2.388;2023-12-20T16:15:49;1.48;;;0.20;;
43803;SDS011;29430;52.924;-2.388;2023-12-20T16:20:41;1.85;;;0.30;;
43803;SDS011;29430;52.924;-2.388;2023-12-20T16:25:33;1.45;;;0.20;;
43803;SDS011;29430;52.924;-2.388;2023-12-20T16:30:29;1.38;;;0.13;;
43803;SDS011;29430;52.924;-2.388;2023-12-20T16:35:21;1.42;;;0.10;;
43803;SDS011;29430;52.924;-2.388;2023-12-20T16:40:13;4.63;;;0.68;;
43803;SDS011;29430;52.924;-2.388;2023-12-20T16:45:05;1.73;;;0.20;;
43803;SDS011;29430;52.924;-2.388;2023-12-20T16:49:58;3.22;;;0.20;;
43803;SDS011;29430;52.924;-2.388;2023-12-20T16:54:50;1.80;;;0.20;;
43803;SDS011;29430;52.924;-2.388;2023-12-20T16:59:42;1.17;;;0.10;;
43803;SDS011;29430;52.924;-2.388;2023-12-20T17:04:34;1.13;;;0.17;;
43803;SDS011;29430;52.924;-2.388;2023-12-20T17:09:27;2.45;;;0.20;;
43803;SDS011;29430;52.924;-2.388;2023-12-20T17:14:22;1.50;;;0.30;;
43803;SDS011;29430;52.924;-2.388;2023-12-20T17:19:13;1.48;;;0.30;;
43803;SDS011;29430;52.924;-2.388;2023-12-20T17:24:05;2.17;;;0.30;;
43803;SDS011;29430;52.924;-2.388;2023-12-20T17:29:02;2.60;;;0.60;;
43803;SDS011;29430;52.924;-2.388;2023-12-20T17:33:54;2.30;;;0.38;;
43803;SDS011;29430;52.924;-2.388;2023-12-20T17:38:45;1.30;;;0.38;;
43803;SDS011;29430;52.924;-2.388;2023-12-20T17:43:37;1.90;;;0.20;;
43803;SDS011;29430;52.924;-2.388;2023-12-20T17:48:29;2.53;;;0.20;;
43803;SDS011;29430;52.924;-2.388;2023-12-20T17:53:21;1.10;;;0.20;;
43803;SDS011;29430;52.924;-2.388;2023-12-20T17:58:13;2.63;;;0.32;;
43803;SDS011;29430;52.924;-2.388;2023-12-20T18:03:05;2.47;;;0.57;;
43803;SDS011;29430;52.924;-2.388;2023-12-20T18:07:56;1.70;;;0.40;;
43803;SDS011;29430;52.924;-2.388;2023-12-20T18:12:48;1.63;;;0.30;;
43803;SDS011;29430;52.924;-2.388;2023-12-20T18:17:40;2.00;;;0.40;;
43803;SDS011;29430;52.924;-2.388;2023-12-20T18:22:33;3.20;;;0.30;;
43803;SDS011;29430;52.924;-2.388;2023-12-20T18:27:25;3.55;;;0.30;;
43803;SDS011;29430;52.924;-2.388;2023-12-20T18:32:17;3.33;;;0.80;;
43803;SDS011;29430;52.924;-2.388;2023-12-20T18:37:09;0.98;;;0.30;;
43803;SDS011;29430;52.924;-2.388;2023-12-20T18:42:02;1.23;;;0.20;;
43803;SDS011;29430;52.924;-2.388;2023-12-20T18:46:56;2.83;;;0.30;;
43803;SDS011;29430;52.924;-2.388;2023-12-20T18:51:47;1.88;;;0.40;;
43803;SDS011;29430;52.924;-2.388;2023-12-20T18:56:39;1.90;;;0.40;;
43803;SDS011;29430;52.924;-2.388;2023-12-20T19:01:33;1.30;;;0.30;;
43803;SDS011;29430;52.924;-2.388;2023-12-20T19:06:25;0.93;;;0.20;;
43803;SDS011;29430;52.924;-2.388;2023-12-20T19:11:17;1.15;;;0.30;;
43803;SDS011;29430;52.924;-2.388;2023-12-20T19:16:09;1.60;;;0.50;;
43803;SDS011;29430;52.924;-2.388;2023-12-20T19:21:01;0.98;;;0.10;;
43803;SDS011;29430;52.924;-2.388;2023-12-20T19:25:55;1.10;;;0.20;;
43803;SDS011;29430;52.924;-2.388;2023-12-20T19:30:47;3.42;;;0.40;;
43803;SDS011;29430;52.924;-2.388;2023-12-20T19:35:38;0.77;;;0.20;;
43803;SDS011;29430;52.924;-2.388;2023-12-20T19:40:30;1.67;;;0.38;;
43803;SDS011;29430;52.924;-2.388;2023-12-20T19:45:22;1.38;;;0.40;;
43803;SDS011;29430;52.924;-2.388;2023-12-20T19:50:14;1.23;;;0.30;;
43803;SDS011;29430;52.924;-2.388;2023-12-20T19:55:06;2.28;;;0.50;;
43803;SDS011;29430;52.924;-2.388;2023-12-20T19:59:58;3.60;;;0.38;;
43803;SDS011;29430;52.924;-2.388;2023-12-20T20:04:50;4.55;;;0.95;;
43803;SDS011;29430;52.924;-2.388;2023-12-20T20:09:42;2.78;;;0.70;;
43803;SDS011;29430;52.924;-2.388;2023-12-20T20:14:34;3.05;;;0.45;;
43803;SDS011;29430;52.924;-2.388;2023-12-20T20:19:25;1.50;;;0.30;;
43803;SDS011;29430;52.924;-2.388;2023-12-20T20:24:17;1.10;;;0.25;;
43803;SDS011;29430;52.924;-2.388;2023-12-20T20:29:10;1.45;;;0.20;;
43803;SDS011;29430;52.924;-2.388;2023-12-20T20:34:02;1.70;;;0.20;;
43803;SDS011;29430;52.924;-2.388;2023-12-20T20:38:54;1.88;;;0.40;;
43803;SDS011;29430;52.924;-2.388;2023-12-20T20:43:46;1.48;;;0.20;;
43803;SDS011;29430;52.924;-2.388;2023-12-20T20:48:38;1.00;;;0.10;;
43803;SDS011;29430;52.924;-2.388;2023-12-20T20:53:41;1.55;;;0.10;;
43803;SDS011;29430;52.924;-2.388;2023-12-20T20:58:33;1.27;;;0.10;;
43803;SDS011;29430;52.924;-2.388;2023-12-20T21:03:26;0.55;;;0.00;;
43803;SDS011;29430;52.924;-2.388;2023-12-20T21:08:18;0.47;;;0.10;;
43803;SDS011;29430;52.924;-2.388;2023-12-20T21:13:10;2.10;;;0.10;;
43803;SDS011;29430;52.924;-2.388;2023-12-20T21:18:02;0.35;;;0.00;;
43803;SDS011;29430;52.924;-2.388;2023-12-20T21:22:53;0.25;;;0.10;;
43803;SDS011;29430;52.924;-2.388;2023-12-20T21:27:46;2.08;;;0.20;;
43803;SDS011;29430;52.924;-2.388;2023-12-20T21:32:38;1.00;;;0.20;;
43803;SDS011;29430;52.924;-2.388;2023-12-20T21:37:30;0.82;;;0.10;;
43803;SDS011;29430;52.924;-2.388;2023-12-20T21:42:22;0.38;;;0.10;;
43803;SDS011;29430;52.924;-2.388;2023-12-20T21:47:14;0.73;;;0.10;;
43803;SDS011;29430;52.924;-2.388;2023-12-20T21:52:06;0.40;;;0.10;;
43803;SDS011;29430;52.924;-2.388;2023-12-20T21:56:57;1.95;;;0.10;;
43803;SDS011;29430;52.924;-2.388;2023-12-20T22:01:50;0.10;;;0.00;;
43803;SDS011;29430;52.924;-2.388;2023-12-20T22:06:42;0.32;;;0.00;;
43803;SDS011;29430;52.924;-2.388;2023-12-20T22:11:34;0.57;;;0.00;;
43803;SDS011;29430;52.924;-2.388;2023-12-20T22:16:26;0.05;;;0.00;;
43803;SDS011;29430;52.924;-2.388;2023-12-20T22:21:18;1.25;;;0.00;;
43803;SDS011;29430;52.924;-2.388;2023-12-20T22:26:10;1.55;;;0.10;;
43803;SDS011;29430;52.924;-2.388;2023-12-20T22:31:02;0.68;;;0.08;;
43803;SDS011;29430;52.924;-2.388;2023-12-20T22:35:54;0.80;;;0.17;;
43803;SDS011;29430;52.924;-2.388;2023-12-20T22:40:46;1.42;;;0.10;;
43803;SDS011;29430;52.924;-2.388;2023-12-20T22:45:38;0.20;;;0.00;;
43803;SDS011;29430;52.924;-2.388;2023-12-20T22:50:31;1.90;;;0.00;;
43803;SDS011;29430;52.924;-2.388;2023-12-20T22:55:23;0.63;;;0.10;;
43803;SDS011;29430;52.924;-2.388;2023-12-20T23:00:15;1.02;;;0.00;;
43803;SDS011;29430;52.924;-2.388;2023-12-20T23:05:15;0.90;;;0.10;;
43803;SDS011;29430;52.924;-2.388;2023-12-20T23:10:07;0.20;;;0.00;;
43803;SDS011;29430;52.924;-2.388;2023-12-20T23:14:59;1.33;;;0.20;;
43803;SDS011;29430;52.924;-2.388;2023-12-20T23:19:51;0.98;;;0.10;;
43803;SDS011;29430;52.924;-2.388;2023-12-20T23:24:43;0.00;;;0.00;;
43803;SDS011;29430;52.924;-2.388;2023-12-20T23:29:35;0.47;;;0.10;;
43803;SDS011;29430;52.924;-2.388;2023-12-20T23:34:26;0.60;;;0.00;;
43803;SDS011;29430;52.924;-2.388;2023-12-20T23:39:18;0.88;;;0.10;;
43803;SDS011;29430;52.924;-2.388;2023-12-20T23:44:10;4.47;;;0.10;;
43803;SDS011;29430;52.924;-2.388;2023-12-20T23:49:02;4.00;;;0.20;;
43803;SDS011;29430;52.924;-2.388;2023-12-20T23:53:54;4.03;;;0.65;;
43803;SDS011;29430;52.924;-2.388;2023-12-20T23:58:46;5.50;;;0.30;;
